Time;durP1;ratioP1;P1;durP2;ratioP2;P2;SDS_P1;SDS_P2;PMS_P1;PMS_P2;Temp;Humidity;BMP_temperature;BMP_pressure;BME280_temperature;BME280_humidity;BME280_pressure;Samples;Min_cycle;Max_cycle;Signal;HPM_P1;HPM_P2
2022/10/21 00:02:40;;;;;;;40.50;24.23;;;;;;;0.09;78.52;101409.61;3576094;78;22128;-73
2022/10/21 00:07:32;;;;;;;59.15;29.37;;;;;;;0.07;78.35;101398.02;3583536;78;20971;-71
2022/10/21 00:12:23;;;;;;;48.90;27.07;;;;;;;0.02;77.64;101410.88;3589470;78;20940;-72
2022/10/21 00:17:15;;;;;;;49.80;26.57;;;;;;;-0.05;78.24;101403.15;3571670;77;21477;-72
2022/10/21 00:22:06;;;;;;;52.78;26.45;;;;;;;-0.07;78.32;101399.60;3553207;78;21015;-72
2022/10/21 00:26:57;;;;;;;54.60;26.35;;;;;;;-0.14;77.81;101393.55;3604532;78;22506;-72
2022/10/21 00:31:53;;;;;;;49.50;24.25;;;;;;;-0.14;77.81;101393.55;3564091;77;21526;-72
2022/10/21 00:36:44;;;;;;;59.13;28.38;;;;;;;-0.18;78.11;101386.83;3568133;77;20953;-72
2022/10/21 00:41:36;;;;;;;79.12;34.08;;;;;;;-0.20;78.30;101382.87;3524764;77;20991;-72
2022/10/21 00:46:35;;;;;;;61.28;29.95;;;;;;;-0.24;78.14;101388.56;3616783;77;20958;-72
2022/10/21 00:51:27;;;;;;;57.65;26.87;;;;;;;-0.27;77.95;101379.39;3630373;77;21515;-72
2022/10/21 00:56:24;;;;;;;51.13;24.80;;;;;;;-0.34;77.76;101375.90;3619424;77;20928;-72
2022/10/21 01:01:16;;;;;;;57.10;29.47;;;;;;;-0.38;78.06;101372.23;3664313;77;20871;-72
2022/10/21 01:06:10;;;;;;;78.17;33.45;;;;;;;-0.37;78.21;101369.31;3566714;77;21006;-72
2022/10/21 01:11:03;;;;;;;84.00;37.45;;;;;;;-0.41;78.10;101374.20;3568931;77;21418;-72
2022/10/21 01:16:24;;;;;;;64.15;27.55;;;;;;;-0.45;78.35;101370.94;3596040;77;21137;-72
2022/10/21 01:21:39;;;;;;;69.67;29.55;;;;;;;-0.46;78.20;101369.14;3658083;77;20923;-72
2022/10/21 01:27:00;;;;;;;56.80;27.55;;;;;;;-0.51;78.06;101358.98;3607008;77;20967;-72
2022/10/21 01:32:18;;;;;;;54.10;25.80;;;;;;;-0.53;78.30;101357.11;3624714;77;21981;-72
2022/10/21 01:37:27;;;;;;;55.67;25.55;;;;;;;-0.59;77.91;101358.44;3638588;77;20994;-72
2022/10/21 01:42:33;;;;;;;57.15;27.13;;;;;;;-0.60;78.40;101354.49;3601047;77;22730;-72
2022/10/21 01:47:31;;;;;;;60.80;27.48;;;;;;;-0.63;78.54;101346.60;3639376;77;21571;-72
2022/10/21 01:52:23;;;;;;;65.15;28.75;;;;;;;-0.59;78.62;101352.05;3616801;77;20970;-72
2022/10/21 01:57:18;;;;;;;51.60;26.07;;;;;;;-0.65;77.85;101355.83;3547838;77;21496;-72
2022/10/21 02:02:11;;;;;;;76.92;31.68;;;;;;;-0.70;78.30;101349.49;3506721;79;21003;-72
2022/10/21 02:07:02;;;;;;;72.90;30.40;;;;;;;-0.70;78.60;101330.34;3544802;79;22746;-72
2022/10/21 02:11:59;;;;;;;64.12;27.13;;;;;;;-0.71;78.52;101328.58;3547436;77;20978;-72
2022/10/21 02:16:52;;;;;;;99.65;35.43;;;;;;;-0.72;78.69;101320.41;3647978;77;21450;-71
2022/10/21 02:21:47;;;;;;;89.50;34.55;;;;;;;-0.73;78.57;101313.51;3605494;77;20973;-72
2022/10/21 02:26:39;;;;;;;64.25;28.62;;;;;;;-0.79;78.27;101307.21;3613523;77;20934;-72
2022/10/21 02:31:38;;;;;;;58.80;27.58;;;;;;;-0.80;78.41;101302.88;3442074;79;21537;-72
2022/10/21 02:36:50;;;;;;;57.93;30.27;;;;;;;-0.83;78.32;101286.05;3477493;79;21461;-72
2022/10/21 02:41:43;;;;;;;63.38;31.33;;;;;;;-0.86;78.19;101289.68;3561034;78;20947;-72
2022/10/21 02:46:42;;;;;;;53.08;28.70;;;;;;;-0.89;78.28;101277.95;3505607;78;20956;-72
2022/10/21 02:51:34;;;;;;;46.23;27.10;;;;;;;-0.93;78.34;101268.31;3589403;77;20985;-71
2022/10/21 02:56:26;;;;;;;47.98;24.07;;;;;;;-0.96;78.32;101256.20;3586421;77;21310;-72
2022/10/21 03:01:17;;;;;;;41.00;23.70;;;;;;;-0.97;78.40;101241.68;3554667;76;20935;-71
2022/10/21 03:06:08;;;;;;;48.85;24.00;;;;;;;-0.97;78.53;101225.45;3537945;78;21426;-72
2022/10/21 03:10:59;;;;;;;41.28;21.90;;;;;;;-0.96;78.73;101227.24;3596122;77;20967;-72
2022/10/21 03:15:51;;;;;;;39.98;21.77;;;;;;;-0.96;78.83;101234.90;3601792;77;20972;-72
2022/10/21 03:20:43;;;;;;;33.15;19.45;;;;;;;-0.95;78.85;101237.93;3530793;77;20992;-72
2022/10/21 03:25:34;;;;;;;30.43;16.73;;;;;;;-0.94;79.12;101228.63;3602786;77;20932;-72
2022/10/21 03:30:25;;;;;;;27.87;16.45;;;;;;;-0.98;78.72;101242.84;3584952;77;20939;-71
2022/10/21 03:35:16;;;;;;;24.85;15.55;;;;;;;-1.00;79.07;101218.88;3646622;77;20951;-71
2022/10/21 03:40:08;;;;;;;23.55;14.58;;;;;;;-0.98;79.31;101201.60;3574331;77;21391;-71
2022/10/21 03:44:59;;;;;;;21.93;14.40;;;;;;;-0.99;78.91;101201.48;3544016;77;21039;-72
2022/10/21 03:49:51;;;;;;;20.90;13.78;;;;;;;-1.03;79.00;101199.50;3618557;77;21860;-71
2022/10/21 03:54:42;;;;;;;21.85;15.28;;;;;;;-1.04;79.26;101196.08;3586274;78;21952;-72
2022/10/21 03:59:33;;;;;;;18.90;13.10;;;;;;;-1.02;79.35;101189.77;3541130;77;20977;-72
2022/10/21 04:04:24;;;;;;;19.23;13.28;;;;;;;-1.04;79.20;101182.41;3566260;77;21476;-72
2022/10/21 04:09:15;;;;;;;19.10;13.32;;;;;;;-1.06;79.11;101177.58;3505934;77;21144;-72
2022/10/21 04:14:07;;;;;;;20.35;13.78;;;;;;;-1.05;79.26;101183.20;3614452;77;21471;-72
2022/10/21 04:18:58;;;;;;;17.05;12.60;;;;;;;-1.10;79.09;101175.20;3554235;77;20913;-72
2022/10/21 04:23:49;;;;;;;23.52;15.45;;;;;;;-1.10;79.46;101166.27;3586121;77;21018;-72
2022/10/21 04:28:40;;;;;;;19.20;13.48;;;;;;;-1.09;79.53;101173.53;3524572;77;20948;-72
2022/10/21 04:33:31;;;;;;;20.32;14.80;;;;;;;-1.11;79.50;101162.33;3586877;77;22637;-72
2022/10/21 04:38:23;;;;;;;21.10;13.85;;;;;;;-1.10;79.69;101150.95;3556205;77;20905;-72
2022/10/21 04:43:14;;;;;;;21.62;14.33;;;;;;;-1.12;79.28;101164.41;3624066;77;20944;-71
2022/10/21 04:48:06;;;;;;;25.10;14.35;;;;;;;-1.13;79.61;101163.49;3530695;77;21474;-72
2022/10/21 04:52:57;;;;;;;21.15;13.80;;;;;;;-1.09;79.93;101138.71;3607778;77;20942;-71
2022/10/21 04:57:48;;;;;;;21.70;13.62;;;;;;;-1.05;79.91;101134.70;3525609;77;20970;-72
2022/10/21 05:02:41;;;;;;;26.23;14.07;;;;;;;-1.01;79.60;101134.13;3617896;77;21014;-71
2022/10/21 05:07:33;;;;;;;23.40;13.20;;;;;;;-0.94;79.88;101117.19;3606298;77;20987;-72
2022/10/21 05:12:24;;;;;;;23.18;15.28;;;;;;;-0.86;79.53;101119.89;3562015;78;21240;-72
2022/10/21 05:17:16;;;;;;;23.47;15.95;;;;;;;-0.77;79.83;101123.08;3633316;77;22064;-72
2022/10/21 05:22:11;;;;;;;22.90;15.05;;;;;;;-0.67;79.87;101123.70;3583559;77;21337;-72
2022/10/21 05:27:04;;;;;;;22.42;15.63;;;;;;;-0.65;79.87;101128.52;3576109;77;21014;-72
2022/10/21 05:32:03;;;;;;;23.87;13.83;;;;;;;-0.55;80.11;101116.88;3559339;77;20982;-73
2022/10/21 05:36:56;;;;;;;20.60;14.18;;;;;;;-0.45;80.21;101105.23;3621134;77;21007;-71
2022/10/21 05:41:49;;;;;;;21.55;14.55;;;;;;;-0.39;80.23;101083.92;3612607;77;20940;-72
2022/10/21 05:46:50;;;;;;;20.60;14.05;;;;;;;-0.32;80.12;101081.76;3619890;77;20895;-71
2022/10/21 05:51:44;;;;;;;25.00;15.60;;;;;;;-0.30;80.07;101086.20;3503936;79;21134;-72
2022/10/21 05:56:44;;;;;;;25.75;16.02;;;;;;;-0.16;80.45;101082.02;3608807;77;20912;-72
2022/10/21 06:01:39;;;;;;;27.07;15.83;;;;;;;0.01;80.55;101075.43;3567211;77;20936;-72
2022/10/21 06:06:27;;;;;;;26.30;14.18;;;;;;;0.21;80.45;101074.16;3561188;77;20935;-72
2022/10/21 06:11:21;;;;;;;22.48;14.78;;;;;;;0.37;80.43;101081.14;3611000;76;22183;-72
2022/10/21 06:16:13;;;;;;;25.77;16.50;;;;;;;0.51;80.40;101084.58;3578526;77;21424;-72
2022/10/21 06:21:05;;;;;;;23.47;15.15;;;;;;;0.62;80.48;101081.02;3566664;77;20947;-72
2022/10/21 06:26:01;;;;;;;21.57;14.50;;;;;;;0.76;80.39;101097.25;3561101;78;20991;-72
2022/10/21 06:30:52;;;;;;;23.52;14.65;;;;;;;0.89;80.36;101101.45;3644468;77;21594;-72
2022/10/21 06:35:43;;;;;;;24.12;16.27;;;;;;;1.01;80.39;101088.13;3556823;77;22068;-72
2022/10/21 06:40:35;;;;;;;24.65;13.93;;;;;;;1.12;80.24;101092.62;3653445;77;21467;-73
2022/10/21 06:45:28;;;;;;;22.95;16.25;;;;;;;1.20;80.34;101090.52;3608267;77;21066;-72
2022/10/21 06:50:19;;;;;;;28.67;14.95;;;;;;;1.26;80.33;101096.03;3532093;77;20941;-72
2022/10/21 06:55:11;;;;;;;23.18;14.83;;;;;;;1.34;80.42;101074.30;3618828;77;20938;-72
2022/10/21 07:00:05;;;;;;;23.22;15.00;;;;;;;1.41;80.43;101070.02;3551335;77;21138;-72
2022/10/21 07:04:58;;;;;;;19.90;14.20;;;;;;;1.47;80.31;101078.50;3623098;77;20935;-72
2022/10/21 07:09:49;;;;;;;22.67;14.53;;;;;;;1.61;80.27;101079.30;3565415;77;21452;-73
2022/10/21 07:14:40;;;;;;;20.10;14.50;;;;;;;1.82;80.26;101069.00;3586169;77;20932;-72
2022/10/21 07:19:32;;;;;;;18.55;13.00;;;;;;;2.07;80.08;101057.59;3593065;77;21424;-72
2022/10/21 07:24:23;;;;;;;19.60;13.58;;;;;;;2.31;80.04;101056.82;3498006;77;21280;-72
2022/10/21 07:29:15;;;;;;;19.82;14.07;;;;;;;2.47;79.58;101058.55;3470368;78;21495;-73
2022/10/21 07:34:08;;;;;;;17.48;11.33;;;;;;;2.72;80.02;101064.63;3492666;78;21500;-74
2022/10/21 07:39:18;;;;;;;15.75;11.20;;;;;;;4.11;78.51;101061.00;3479845;79;20959;-74
2022/10/21 07:44:13;;;;;;;14.33;10.75;;;;;;;4.20;78.90;101054.13;3527351;79;21011;-71
2022/10/21 07:49:05;;;;;;;11.88;9.10;;;;;;;4.24;78.99;101048.73;3487236;79;21182;-71
2022/10/21 07:53:59;;;;;;;12.13;9.08;;;;;;;4.67;78.76;101040.05;3509709;78;21439;-71
2022/10/21 07:58:53;;;;;;;12.40;8.85;;;;;;;5.65;77.71;101029.31;3506115;78;21006;-72
2022/10/21 08:03:48;;;;;;;9.50;7.70;;;;;;;5.91;77.62;101019.17;3521289;78;22471;-72
2022/10/21 08:08:39;;;;;;;9.63;8.00;;;;;;;6.03;76.71;101019.70;3463930;78;20926;-72
2022/10/21 08:13:37;;;;;;;12.10;7.92;;;;;;;5.94;76.23;101008.98;3523953;78;20990;-72
2022/10/21 08:18:38;;;;;;;;;;;;;;;;;;;;;
2022/10/21 08:23:23;;;;;;;14.28;8.55;;;;;;;5.91;75.77;101003.69;3463304;79;21018;-73
2022/10/21 08:28:16;;;;;;;9.25;8.15;;;;;;;6.07;76.07;101003.51;3503803;79;20947;-73
2022/10/21 08:33:40;;;;;;;9.35;6.95;;;;;;;6.22;75.50;100995.90;3519437;77;20980;-74
2022/10/21 08:38:48;;;;;;;;;;;;;;;;;;;;;
2022/10/21 08:43:34;;;;;;;11.22;7.67;;;;;;;6.58;75.00;100971.91;3403799;81;22096;-73
2022/10/21 08:48:37;;;;;;;10.32;6.72;;;;;;;6.94;74.12;100951.19;3390788;81;22587;-73
2022/10/21 08:53:44;;;;;;;14.68;8.05;;;;;;;7.17;74.22;100949.02;3447523;81;21074;-73
2022/10/21 08:58:35;;;;;;;9.55;7.12;;;;;;;7.46;73.83;100951.71;3449067;81;22253;-73
2022/10/21 09:03:53;;;;;;;7.55;6.08;;;;;;;7.75;73.44;100930.66;3451756;81;21331;-73
2022/10/21 09:08:57;;;;;;;8.65;6.05;;;;;;;7.85;73.01;100936.12;3448314;80;21023;-73
2022/10/21 09:14:12;;;;;;;8.73;5.70;;;;;;;7.82;72.42;100935.62;3476907;79;20972;-73
2022/10/21 09:19:33;;;;;;;7.65;5.78;;;;;;;7.81;72.65;100935.14;3540444;79;20925;-73
2022/10/21 09:24:39;;;;;;;7.67;6.03;;;;;;;8.04;72.61;100933.70;3488644;80;21078;-73
2022/10/21 09:29:40;;;;;;;10.08;6.30;;;;;;;8.33;71.71;100914.70;3632885;78;21382;-73
2022/10/21 09:35:07;;;;;;;10.05;6.12;;;;;;;9.10;70.99;100907.81;3653329;77;20980;-74
2022/10/21 09:40:16;;;;;;;6.70;5.25;;;;;;;9.34;70.34;100905.38;3655659;78;20940;-73
2022/10/21 09:45:31;;;;;;;9.05;6.50;;;;;;;9.32;69.31;100891.49;3649345;78;20975;-73
2022/10/21 09:50:23;;;;;;;6.75;5.70;;;;;;;9.31;69.05;100875.45;3605437;78;20974;-73
2022/10/21 09:55:15;;;;;;;6.53;5.65;;;;;;;9.83;69.25;100874.08;3546993;78;21354;-74
2022/10/21 10:00:07;;;;;;;8.50;5.60;;;;;;;10.03;67.88;100869.34;3581516;77;21013;-73
2022/10/21 10:05:04;;;;;;;5.75;4.92;;;;;;;10.12;68.02;100843.95;3591844;78;20958;-74
2022/10/21 10:09:53;;;;;;;6.28;4.75;;;;;;;10.27;68.27;100839.08;3626341;77;20962;-73
2022/10/21 10:14:46;;;;;;;8.58;5.95;;;;;;;10.37;67.74;100838.86;3630473;77;21001;-74
2022/10/21 10:19:38;;;;;;;7.05;5.50;;;;;;;10.29;67.19;100841.28;3610686;77;21288;-73
2022/10/21 10:24:30;;;;;;;6.00;5.15;;;;;;;10.21;67.47;100832.48;3599578;77;21556;-73
2022/10/21 10:29:25;;;;;;;9.93;6.22;;;;;;;10.23;67.71;100836.38;3645180;77;21130;-73
2022/10/21 10:34:25;;;;;;;10.23;6.22;;;;;;;10.16;67.03;100831.91;3635749;77;20998;-73
2022/10/21 10:39:24;;;;;;;5.60;5.10;;;;;;;10.24;67.53;100836.41;3667370;77;20932;-74
2022/10/21 10:44:32;;;;;;;7.15;5.33;;;;;;;10.19;67.05;100827.64;3654542;77;21113;-73
2022/10/21 10:49:26;;;;;;;6.37;5.78;;;;;;;10.21;66.96;100828.58;3632505;78;20935;-74
2022/10/21 10:54:22;;;;;;;9.48;5.72;;;;;;;10.45;65.82;100829.94;3594562;77;20998;-74
2022/10/21 10:59:46;;;;;;;6.80;5.80;;;;;;;10.55;66.37;100805.88;3603490;77;20939;-73
2022/10/21 11:05:15;;;;;;;6.33;5.33;;;;;;;10.74;66.05;100810.09;3580509;77;21000;-73
2022/10/21 11:10:28;;;;;;;8.58;5.37;;;;;;;11.03;65.81;100794.54;3622333;78;21121;-74
2022/10/21 11:15:25;;;;;;;6.92;6.17;;;;;;;11.21;64.66;100773.57;3617414;77;20983;-73
2022/10/21 11:20:25;;;;;;;8.35;5.97;;;;;;;10.78;64.87;100784.59;3644492;77;20900;-73
2022/10/21 11:25:41;;;;;;;8.93;5.92;;;;;;;10.62;65.33;100771.73;3616746;77;20951;-73
2022/10/21 11:30:57;;;;;;;6.60;5.97;;;;;;;11.90;63.59;100738.50;3618572;78;21606;-72
2022/10/21 11:36:38;;;;;;;7.65;5.42;;;;;;;14.32;61.66;100731.94;3628208;77;21059;-72
2022/10/21 11:41:50;;;;;;;7.62;6.83;;;;;;;14.68;59.88;100722.41;3583743;77;20908;-72
2022/10/21 11:47:06;;;;;;;7.42;5.85;;;;;;;13.90;60.32;100742.73;3598298;77;21443;-72
2022/10/21 11:52:24;;;;;;;11.65;6.55;;;;;;;13.43;61.04;100723.77;3602441;77;21714;-72
2022/10/21 11:57:39;;;;;;;7.62;5.85;;;;;;;13.60;61.88;100723.44;3588110;77;20944;-72
2022/10/21 12:02:44;;;;;;;8.23;6.40;;;;;;;13.80;62.14;100706.97;3654465;77;21056;-73
2022/10/21 12:07:59;;;;;;;7.65;6.53;;;;;;;13.57;61.48;100701.65;3589554;77;21411;-72
2022/10/21 12:12:53;;;;;;;8.30;6.33;;;;;;;13.34;62.03;100688.94;3613841;78;20991;-72
2022/10/21 12:17:50;;;;;;;8.68;6.00;;;;;;;13.10;62.30;100700.05;3565344;77;20946;-72
2022/10/21 12:22:42;;;;;;;5.83;5.30;;;;;;;12.56;62.41;100690.53;3576734;78;20969;-72
2022/10/21 12:27:47;;;;;;;7.62;6.25;;;;;;;11.89;62.45;100692.45;3628744;78;21175;-72
2022/10/21 12:33:14;;;;;;;10.70;6.70;;;;;;;11.32;63.24;100690.03;3644554;78;20904;-72
2022/10/21 12:38:26;;;;;;;7.80;5.97;;;;;;;10.97;63.55;100679.98;3620911;77;20954;-72
2022/10/21 12:43:26;;;;;;;9.18;6.12;;;;;;;10.69;64.28;100681.28;3635620;77;20948;-73
2022/10/21 12:48:33;;;;;;;;;;;;;;;10.60;64.37;100670.74;3626863;78;20959;-72
2022/10/21 12:53:41;;;;;;;9.90;7.60;;;;;;;10.59;64.74;100685.48;3628791;77;20940;-72
2022/10/21 12:58:44;;;;;;;8.80;6.08;;;;;;;10.51;64.91;100684.46;3597899;77;21026;-72
2022/10/21 13:03:49;;;;;;;11.90;6.80;;;;;;;10.43;65.24;100686.08;3655146;77;21090;-72
2022/10/21 13:08:52;;;;;;;7.97;6.53;;;;;;;10.34;65.43;100687.19;3587461;77;21074;-72
2022/10/21 13:13:47;;;;;;;8.25;5.78;;;;;;;10.25;65.49;100689.20;3640159;77;21469;-72
2022/10/21 13:18:58;;;;;;;7.12;6.30;;;;;;;10.16;65.74;100674.31;3592541;78;21270;-72
2022/10/21 13:23:52;;;;;;;7.33;6.60;;;;;;;10.04;66.06;100661.97;3580579;77;20959;-72
2022/10/21 13:28:58;;;;;;;7.17;5.72;;;;;;;10.01;66.47;100640.25;3612757;78;21221;-73
2022/10/21 13:33:54;;;;;;;7.80;5.50;;;;;;;10.03;66.64;100645.05;3623710;77;21038;-72
2022/10/21 13:38:52;;;;;;;6.97;5.22;;;;;;;10.06;66.93;100643.81;3560759;78;20932;-72
2022/10/21 13:43:59;;;;;;;9.88;5.70;;;;;;;10.08;67.09;100655.10;3599242;77;21606;-73
2022/10/21 13:48:51;;;;;;;9.45;6.50;;;;;;;10.01;67.11;100653.24;3568026;77;20955;-72
2022/10/21 13:53:47;;;;;;;9.58;5.72;;;;;;;9.95;67.53;100641.02;3555719;77;20934;-73
2022/10/21 13:58:39;;;;;;;10.43;5.75;;;;;;;9.95;67.75;100629.77;3600477;77;20928;-72
2022/10/21 14:03:31;;;;;;;8.48;6.25;;;;;;;9.90;68.04;100620.15;3555549;76;20955;-72
2022/10/21 14:08:31;;;;;;;12.47;6.25;;;;;;;9.86;67.97;100618.35;3598913;77;20983;-72
2022/10/21 14:13:30;;;;;;;17.60;6.83;;;;;;;9.83;68.20;100613.09;3611563;77;21024;-74
2022/10/21 14:18:33;;;;;;;7.65;5.15;;;;;;;9.82;68.63;100620.85;3621832;77;21544;-74
2022/10/21 14:23:26;;;;;;;8.23;5.95;;;;;;;9.80;68.87;100609.56;3594738;77;21049;-74
2022/10/21 14:28:19;;;;;;;7.62;5.80;;;;;;;9.77;69.06;100597.42;3617030;77;21356;-74
2022/10/21 14:33:15;;;;;;;9.30;5.10;;;;;;;9.70;69.27;100587.77;3553616;77;22710;-74
2022/10/21 14:38:30;;;;;;;6.33;4.92;;;;;;;9.57;69.84;100580.58;3608274;77;20978;-74
2022/10/21 14:43:26;;;;;;;12.95;5.80;;;;;;;9.43;70.26;100581.64;3596429;78;20899;-73
2022/10/21 14:48:33;;;;;;;10.38;5.62;;;;;;;9.33;70.91;100580.56;3615776;77;27160;-74
2022/10/21 14:53:28;;;;;;;8.30;6.67;;;;;;;9.24;70.90;100586.88;3578455;77;21516;-73
2022/10/21 14:58:25;;;;;;;9.13;6.42;;;;;;;9.13;71.22;100587.52;3550233;77;21719;-73
2022/10/21 15:03:38;;;;;;;11.12;5.70;;;;;;;9.04;71.67;100582.14;3607266;77;22629;-73
2022/10/21 15:08:31;;;;;;;9.08;5.55;;;;;;;8.96;71.98;100588.91;3597494;77;20986;-73
2022/10/21 15:13:25;;;;;;;7.35;5.58;;;;;;;8.82;72.47;100563.97;3542975;78;20916;-74
2022/10/21 15:18:40;;;;;;;8.75;5.58;;;;;;;8.80;72.46;100581.21;3564866;77;20978;-74
2022/10/21 15:23:36;;;;;;;8.75;5.08;;;;;;;8.72;72.71;100581.02;3654868;77;21488;-73
2022/10/21 15:28:31;;;;;;;9.23;5.53;;;;;;;8.65;73.18;100580.42;3599501;78;20967;-73
2022/10/21 15:33:22;;;;;;;9.18;5.40;;;;;;;8.56;73.28;100573.75;3639222;77;20922;-73
2022/10/21 15:38:13;;;;;;;11.80;6.08;;;;;;;8.46;73.85;100581.73;3623700;77;20934;-74
2022/10/21 15:43:05;;;;;;;9.57;5.90;;;;;;;8.46;73.85;100581.73;3633846;77;21109;-73
2022/10/21 15:47:56;;;;;;;6.85;5.75;;;;;;;8.44;73.34;100587.70;3574637;78;21131;-74
2022/10/21 15:52:48;;;;;;;10.00;7.08;;;;;;;8.42;73.47;100578.99;3613968;77;20971;-74
2022/10/21 15:57:40;;;;;;;8.80;6.33;;;;;;;8.40;72.86;100551.32;3590943;76;21549;-74
2022/10/21 16:02:34;;;;;;;9.78;7.50;;;;;;;8.40;72.88;100542.25;3522647;77;20961;-74
2022/10/21 16:07:28;;;;;;;13.60;7.10;;;;;;;8.35;72.87;100525.76;3573346;77;21271;-75
2022/10/21 16:12:23;;;;;;;11.45;6.25;;;;;;;8.13;74.06;100525.66;3537098;77;20979;-76
2022/10/21 16:17:20;;;;;;;8.18;6.85;;;;;;;8.13;74.06;100525.66;3579888;77;20942;-73
2022/10/21 16:22:19;;;;;;;10.63;5.75;;;;;;;7.97;73.78;100556.77;3536500;77;20943;-71
2022/10/21 16:27:12;;;;;;;11.65;7.33;;;;;;;7.97;73.78;100556.77;3585576;77;21065;-72
2022/10/21 16:32:04;;;;;;;10.13;5.92;;;;;;;7.92;74.06;100552.31;3610052;77;20932;-71
2022/10/21 16:36:55;;;;;;;8.85;6.85;;;;;;;7.86;74.67;100560.81;3611663;77;21164;-72
2022/10/21 16:41:49;;;;;;;13.03;5.72;;;;;;;7.70;74.54;100553.06;3605441;77;21022;-73
2022/10/21 16:46:53;;;;;;;8.68;6.28;;;;;;;7.70;74.54;100553.06;3539738;77;21064;-72
2022/10/21 16:51:45;;;;;;;13.25;7.50;;;;;;;7.66;74.84;100545.20;3541243;77;38237;-73
2022/10/21 16:56:38;;;;;;;8.35;6.80;;;;;;;7.63;74.75;100548.56;3521143;77;21037;-73
2022/10/21 17:01:38;;;;;;;8.88;6.78;;;;;;;7.57;74.70;100551.88;3585700;77;21498;-73
2022/10/21 17:06:29;;;;;;;8.85;7.37;;;;;;;7.50;74.69;100557.72;3605372;77;21019;-74
2022/10/21 17:12:03;;;;;;;12.55;8.90;;;;;;;7.40;74.70;100566.06;3563179;77;22133;-73
2022/10/21 17:17:19;;;;;;;11.60;7.92;;;;;;;7.33;74.90;100568.02;3546519;79;21066;-73
2022/10/21 17:22:16;;;;;;;13.43;7.58;;;;;;;7.24;75.25;100561.77;3448916;81;21331;-72
2022/10/21 17:27:09;;;;;;;16.00;7.40;;;;;;;7.14;75.67;100544.24;3438188;80;21152;-72
2022/10/21 17:32:02;;;;;;;11.22;8.13;;;;;;;7.17;75.74;100553.39;3463501;80;22067;-72
2022/10/21 17:36:53;;;;;;;11.15;6.62;;;;;;;7.10;76.01;100543.70;3496495;79;21485;-72
2022/10/21 17:41:44;;;;;;;13.13;8.18;;;;;;;7.10;76.01;100543.70;3473044;79;20999;-72
2022/10/21 17:46:35;;;;;;;14.68;7.85;;;;;;;7.07;76.36;100533.27;3445757;80;21086;-73
2022/10/21 17:51:26;;;;;;;17.80;8.18;;;;;;;7.04;76.52;100523.70;3454589;79;21465;-73
2022/10/21 17:56:19;;;;;;;12.45;7.62;;;;;;;6.99;76.54;100512.38;3439301;78;20959;-73
2022/10/21 18:01:12;;;;;;;11.35;7.87;;;;;;;6.94;76.67;100502.72;3530003;77;21555;-72
2022/10/21 18:06:07;;;;;;;10.18;7.65;;;;;;;6.84;76.70;100489.54;3576662;77;21457;-73
2022/10/21 18:11:02;;;;;;;8.10;7.28;;;;;;;6.77;76.74;100490.20;3577261;77;20918;-73
2022/10/21 18:15:54;;;;;;;10.28;7.03;;;;;;;6.65;76.66;100476.53;3557872;77;21238;-72
2022/10/21 18:20:46;;;;;;;11.45;7.92;;;;;;;6.52;76.58;100478.28;3633016;78;20958;-72
2022/10/21 18:25:39;;;;;;;14.58;9.50;;;;;;;6.41;76.83;100475.80;3619010;77;21501;-72
2022/10/21 18:30:48;;;;;;;15.40;9.93;;;;;;;6.32;77.09;100474.23;3594167;77;21034;-74
2022/10/21 18:35:39;;;;;;;11.70;8.18;;;;;;;6.20;76.91;100469.56;3604375;77;20937;-75
2022/10/21 18:40:32;;;;;;;12.65;8.98;;;;;;;6.08;77.09;100465.78;3599104;77;21454;-72
2022/10/21 18:45:23;;;;;;;11.65;8.88;;;;;;;6.00;77.21;100464.66;3587368;77;20992;-72
2022/10/21 18:50:14;;;;;;;21.45;14.07;;;;;;;5.90;77.24;100461.28;3642290;77;21454;-72
2022/10/21 18:55:06;;;;;;;26.07;17.25;;;;;;;5.85;77.42;100469.31;3551123;77;21607;-72
2022/10/21 18:59:59;;;;;;;27.70;14.25;;;;;;;5.78;77.41;100463.46;3545316;77;20935;-72
2022/10/21 19:04:50;;;;;;;27.05;20.43;;;;;;;5.72;77.41;100463.76;3592909;77;21175;-72
2022/10/21 19:09:43;;;;;;;41.83;24.87;;;;;;;5.68;77.55;100461.88;3561260;78;20942;-73
2022/10/21 19:14:34;;;;;;;36.28;22.05;;;;;;;5.67;77.69;100460.15;3572211;76;20902;-72
2022/10/21 19:19:26;;;;;;;27.37;19.02;;;;;;;5.66;77.80;100454.94;3533067;78;21064;-74
2022/10/21 19:24:17;;;;;;;34.65;22.00;;;;;;;5.65;77.92;100450.59;3515131;79;21421;-72
2022/10/21 19:29:16;;;;;;;35.38;20.60;;;;;;;5.63;78.09;100440.22;3450286;79;21642;-72
2022/10/21 19:34:11;;;;;;;30.85;20.55;;;;;;;5.65;78.14;100434.72;3556334;78;21498;-72
2022/10/21 19:39:03;;;;;;;26.68;19.37;;;;;;;5.67;78.15;100439.52;3534988;77;20941;-73
2022/10/21 19:43:58;;;;;;;43.45;24.32;;;;;;;5.71;78.36;100441.35;3594772;78;20938;-72
2022/10/21 19:48:50;;;;;;;43.78;28.20;;;;;;;5.77;78.34;100432.06;3531457;77;20974;-73
2022/10/21 19:53:44;;;;;;;32.58;22.55;;;;;;;5.81;78.36;100428.74;3585271;77;22159;-72
2022/10/21 19:58:40;;;;;;;30.45;20.15;;;;;;;5.85;78.43;100424.16;3585748;77;20978;-72
2022/10/21 20:03:31;;;;;;;26.77;18.27;;;;;;;5.89;78.45;100427.29;3538584;77;20912;-73
2022/10/21 20:08:23;;;;;;;23.75;18.87;;;;;;;5.93;78.56;100422.68;3537308;77;20896;-72
2022/10/21 20:13:14;;;;;;;25.45;18.15;;;;;;;6.00;78.59;100418.20;3550375;77;20908;-72
2022/10/21 20:18:07;;;;;;;24.35;16.55;;;;;;;6.06;78.69;100417.11;3534787;77;20962;-72
2022/10/21 20:22:58;;;;;;;26.05;18.45;;;;;;;6.11;78.76;100419.39;3529115;77;21049;-72
2022/10/21 20:27:49;;;;;;;26.10;18.27;;;;;;;6.16;78.96;100414.38;3522764;77;20983;-73
2022/10/21 20:32:40;;;;;;;24.02;17.75;;;;;;;6.21;79.06;100410.66;3554747;77;21390;-72
2022/10/21 20:37:32;;;;;;;23.32;17.42;;;;;;;6.26;79.12;100396.16;3537372;77;20975;-72
2022/10/21 20:42:24;;;;;;;33.10;17.35;;;;;;;6.29;79.16;100400.13;3554712;77;21220;-72
2022/10/21 20:47:16;;;;;;;23.90;17.12;;;;;;;6.34;79.31;100401.14;3591331;77;20980;-73
2022/10/21 20:52:07;;;;;;;23.47;17.32;;;;;;;6.40;79.38;100392.30;3582597;77;21113;-72
2022/10/21 20:56:58;;;;;;;26.68;17.37;;;;;;;6.44;79.53;100390.25;3613560;77;20987;-72
2022/10/21 21:01:49;;;;;;;26.15;16.42;;;;;;;6.47;79.59;100386.47;3580544;76;20962;-71
2022/10/21 21:07:00;;;;;;;24.80;15.00;;;;;;;6.52;79.63;100389.59;3547439;76;21925;-73
2022/10/21 21:12:02;;;;;;;24.40;15.88;;;;;;;6.57;79.87;100383.72;3613970;77;21373;-72
2022/10/21 21:16:54;;;;;;;24.67;16.45;;;;;;;6.60;79.93;100374.77;3551365;77;20976;-73
2022/10/21 21:21:45;;;;;;;19.67;14.93;;;;;;;6.64;80.07;100375.30;3585360;78;20955;-73
2022/10/21 21:26:40;;;;;;;22.58;15.53;;;;;;;6.68;80.26;100378.84;3572021;77;21014;-74
2022/10/21 21:31:33;;;;;;;20.17;14.65;;;;;;;6.70;80.44;100372.00;3581028;77;21323;-74
2022/10/21 21:36:25;;;;;;;21.40;15.28;;;;;;;6.73;80.67;100382.43;3552420;77;20920;-74
2022/10/21 21:41:17;;;;;;;23.92;15.90;;;;;;;6.75;80.79;100387.64;3577237;77;21184;-73
2022/10/21 21:46:12;;;;;;;21.35;14.87;;;;;;;6.77;80.97;100370.47;3524469;78;21458;-77
2022/10/21 21:51:12;;;;;;;18.00;13.50;;;;;;;6.79;81.18;100377.41;3561521;77;21501;-75
2022/10/21 21:56:06;;;;;;;19.82;14.50;;;;;;;6.83;81.33;100370.22;3550218;77;21454;-74
2022/10/21 22:01:13;;;;;;;20.85;15.00;;;;;;;6.85;81.46;100363.38;3518890;77;20949;-74
2022/10/21 22:06:05;;;;;;;25.00;14.70;;;;;;;6.90;81.28;100357.02;3565295;77;20977;-75
2022/10/21 22:10:56;;;;;;;17.80;12.63;;;;;;;6.94;81.19;100361.86;3570314;78;21090;-75
2022/10/21 22:15:47;;;;;;;20.37;13.32;;;;;;;6.99;81.48;100365.44;3539874;78;21359;-76
2022/10/21 22:20:39;;;;;;;20.97;15.45;;;;;;;7.00;81.56;100352.98;3615140;77;21057;-77
2022/10/21 22:25:31;;;;;;;18.45;13.75;;;;;;;7.03;81.50;100363.41;3586295;78;21265;-75
2022/10/21 22:30:22;;;;;;;19.40;13.78;;;;;;;7.04;81.71;100360.84;3573295;77;20956;-74
2022/10/21 22:35:13;;;;;;;20.77;13.75;;;;;;;7.07;81.80;100367.81;3567141;78;21026;-75
2022/10/21 22:40:06;;;;;;;23.15;15.85;;;;;;;7.11;81.79;100364.46;3571410;77;21039;-76
2022/10/21 22:44:58;;;;;;;22.93;15.93;;;;;;;7.14;82.02;100361.97;3541195;77;21151;-75
2022/10/21 22:49:50;;;;;;;20.23;15.80;;;;;;;7.17;81.98;100364.63;3583841;77;21219;-76
2022/10/21 22:54:41;;;;;;;23.87;16.30;;;;;;;7.21;82.14;100358.70;3542847;77;21645;-76